createdAt,value
2023-02-03T00:02:21.481Z,3.83
2023-02-03T00:06:25.138Z,3.90
2023-02-03T00:10:28.656Z,4.45
2023-02-03T00:14:33.821Z,4.10
2023-02-03T00:18:39.323Z,3.20
2023-02-03T00:22:42.336Z,3.20
2023-02-03T00:26:45.198Z,3.63
2023-02-03T00:30:48.129Z,3.83
2023-02-03T00:34:52.684Z,3.83
2023-02-03T00:38:56.185Z,3.75
2023-02-03T00:42:59.337Z,3.70
2023-02-03T00:47:02.331Z,2.50
2023-02-03T00:51:07.564Z,3.58
2023-02-03T00:55:10.919Z,3.95
2023-02-03T00:59:14.084Z,2.75
2023-02-03T01:03:18.719Z,2.63
2023-02-03T01:07:23.386Z,3.00
2023-02-03T01:11:27.815Z,2.58
2023-02-03T01:15:30.897Z,2.58
2023-02-03T01:19:34.087Z,2.33
2023-02-03T01:23:39.528Z,2.65
2023-02-03T01:27:42.649Z,2.97
2023-02-03T01:31:48.563Z,3.63
2023-02-03T01:35:51.213Z,3.55
2023-02-03T01:39:55.553Z,3.08
2023-02-03T01:44:00.588Z,3.40
2023-02-03T01:48:03.369Z,4.07
2023-02-03T01:52:07.542Z,4.43
2023-02-03T01:56:13.539Z,2.80
2023-02-03T02:00:17.165Z,3.53
2023-02-03T02:04:21.205Z,3.38
2023-02-03T02:08:25.445Z,3.33
2023-02-03T02:12:30.034Z,3.03
2023-02-03T02:16:42.768Z,3.03
2023-02-03T02:21:35.895Z,3.25
2023-02-03T02:26:09.475Z,3.28
2023-02-03T02:30:50.908Z,3.10
2023-02-03T02:35:03.977Z,3.65
2023-02-03T02:39:16.876Z,1.95
2023-02-03T02:43:24.227Z,2.70
2023-02-03T02:47:27.469Z,4.90
2023-02-03T02:51:33.234Z,3.35
2023-02-03T02:55:41.204Z,3.33
2023-02-03T02:59:44.428Z,3.60
2023-02-03T03:03:47.993Z,1.33
2023-02-03T03:07:59.396Z,3.55
2023-02-03T03:12:09.410Z,3.15
2023-02-03T03:16:17.006Z,2.38
2023-02-03T03:20:26.370Z,3.22
2023-02-03T03:24:38.122Z,4.15
2023-02-03T03:28:48.573Z,3.40
2023-02-03T03:32:52.399Z,4.25
2023-02-03T03:41:10.181Z,2.28
2023-02-03T03:45:20.321Z,3.13
2023-02-03T03:49:26.089Z,2.75
2023-02-03T03:53:31.559Z,3.28
2023-02-03T03:57:41.136Z,2.50
2023-02-03T04:01:45.037Z,3.13
2023-02-03T04:09:51.335Z,3.83
2023-02-03T04:13:55.896Z,4.35
2023-02-03T04:17:59.063Z,6.57
2023-02-03T04:22:02.051Z,5.50
2023-02-03T04:26:05.082Z,4.15
2023-02-03T04:30:11.934Z,3.13
2023-02-03T04:34:14.950Z,3.30
2023-02-03T04:38:17.935Z,3.25
2023-02-03T04:42:21.193Z,3.17
2023-02-03T04:46:25.622Z,10.82
2023-02-03T04:50:36.988Z,3.63
2023-02-03T04:54:39.790Z,3.47
2023-02-03T04:58:45.659Z,11.38
2023-02-03T05:02:50.063Z,3.58
2023-02-03T05:06:53.316Z,3.75
2023-02-03T05:10:56.265Z,4.50
2023-02-03T05:14:59.133Z,3.95
2023-02-03T05:19:03.965Z,4.30
2023-02-03T05:23:06.922Z,4.63
2023-02-03T05:27:09.878Z,3.85
2023-02-03T05:31:12.869Z,3.63
2023-02-03T05:35:18.053Z,3.03
2023-02-03T05:39:21.018Z,3.03
2023-02-03T05:43:24.167Z,4.90
2023-02-03T05:47:30.495Z,3.42
2023-02-03T05:51:34.785Z,3.75
2023-02-03T05:55:38.278Z,3.55
2023-02-03T05:59:41.220Z,3.65
2023-02-03T06:03:46.165Z,2.80
2023-02-03T06:07:51.700Z,3.30
2023-02-03T06:11:54.927Z,3.55
2023-02-03T06:15:58.042Z,4.15
2023-02-03T06:20:01.089Z,4.30
2023-02-03T06:24:05.968Z,3.70
2023-02-03T06:28:09.155Z,3.95
2023-02-03T06:32:14.037Z,5.03
2023-02-03T06:36:16.926Z,4.15
2023-02-03T06:40:25.009Z,4.20
2023-02-03T06:44:28.477Z,4.35
2023-02-03T06:48:31.492Z,4.75
2023-02-03T06:52:34.495Z,4.25
2023-02-03T06:56:39.469Z,3.88
2023-02-03T07:00:42.606Z,4.55
2023-02-03T07:04:46.312Z,3.50
2023-02-03T07:08:49.256Z,2.70
2023-02-03T07:12:53.559Z,3.30
2023-02-03T07:16:56.519Z,3.45
2023-02-03T07:20:59.505Z,1.95
2023-02-03T07:25:02.072Z,3.63
2023-02-03T07:29:06.775Z,2.80
2023-02-03T07:33:15.052Z,3.95
2023-02-03T07:37:18.114Z,2.58
2023-02-03T07:41:21.337Z,3.42
2023-02-03T07:45:28.147Z,3.53
2023-02-03T07:49:32.001Z,4.03
2023-02-03T07:53:35.550Z,4.35
2023-02-03T07:57:43.655Z,2.08
2023-02-03T08:01:49.601Z,3.83
2023-02-03T08:05:53.667Z,3.35
2023-02-03T08:09:56.998Z,4.20
2023-02-03T08:14:00.558Z,3.28
2023-02-03T08:18:09.474Z,3.70
2023-02-03T08:22:16.293Z,4.80
2023-02-03T08:26:44.275Z,3.13
2023-02-03T08:30:50.685Z,3.63
2023-02-03T08:34:56.192Z,2.83
2023-02-03T08:38:59.541Z,3.35
2023-02-03T08:43:02.518Z,3.00
2023-02-03T08:47:05.715Z,3.70
2023-02-03T08:51:13.152Z,2.63
2023-02-03T08:55:15.935Z,3.65
2023-02-03T08:59:19.804Z,2.95
2023-02-03T09:03:22.929Z,3.03
2023-02-03T09:07:28.255Z,3.15
2023-02-03T09:11:31.041Z,3.22
2023-02-03T09:15:36.696Z,3.45
2023-02-03T09:19:40.210Z,3.25
2023-02-03T09:23:46.531Z,3.20
2023-02-03T09:27:49.458Z,4.20
2023-02-03T09:31:55.693Z,3.55
2023-02-03T09:35:59.803Z,3.10
2023-02-03T09:40:04.367Z,2.72
2023-02-03T09:44:15.821Z,2.75
2023-02-03T09:48:25.307Z,2.30
2023-02-03T09:52:32.663Z,3.40
2023-02-03T09:56:38.358Z,3.10
2023-02-03T10:00:44.864Z,2.58
2023-02-03T10:04:58.677Z,1.58
2023-02-03T10:09:24.601Z,3.55
2023-02-03T10:13:41.771Z,2.30
2023-02-03T10:17:50.116Z,2.60
2023-02-03T10:21:59.027Z,2.65
2023-02-03T10:26:07.022Z,2.70
2023-02-03T10:30:21.766Z,2.55
2023-02-03T10:34:27.084Z,3.10
2023-02-03T10:38:42.530Z,2.83
2023-02-03T10:43:06.069Z,2.90
2023-02-03T10:47:29.550Z,3.15
2023-02-03T10:51:38.836Z,2.28
2023-02-03T10:55:45.730Z,2.00
2023-02-03T10:59:50.573Z,2.42
2023-02-03T11:04:04.170Z,3.20
2023-02-03T11:08:16.306Z,2.20
2023-02-03T11:12:21.232Z,2.90
2023-02-03T11:16:25.940Z,3.33
2023-02-03T11:20:33.783Z,2.88
2023-02-03T11:24:41.711Z,2.60
2023-02-03T11:28:50.332Z,2.72
2023-02-03T11:32:54.046Z,3.30
2023-02-03T11:37:12.129Z,2.63
2023-02-03T11:41:23.050Z,3.03
2023-02-03T11:45:28.822Z,2.92
2023-02-03T11:49:51.693Z,3.17
2023-02-03T11:54:07.922Z,2.17
2023-02-03T11:58:41.127Z,2.85
2023-02-03T12:03:19.274Z,3.00
2023-02-03T12:07:52.587Z,3.53
2023-02-03T12:12:25.941Z,3.50
2023-02-03T12:16:50.101Z,2.83
2023-02-03T12:21:05.589Z,4.05
2023-02-03T12:25:19.817Z,2.80
2023-02-03T12:29:32.043Z,2.35
2023-02-03T12:33:43.204Z,3.55
2023-02-03T12:37:51.501Z,3.13
2023-02-03T12:42:02.933Z,3.28
2023-02-03T12:46:16.317Z,3.85
2023-02-03T12:50:23.498Z,4.45
2023-02-03T12:54:36.338Z,5.35
2023-02-03T12:58:42.722Z,3.22
2023-02-03T13:03:00.504Z,4.07
2023-02-03T13:07:14.379Z,5.10
2023-02-03T13:11:24.968Z,5.25
2023-02-03T13:15:32.741Z,4.57
2023-02-03T13:19:42.569Z,4.97
2023-02-03T13:23:48.314Z,4.35
2023-02-03T13:28:00.703Z,4.95
2023-02-03T13:32:15.945Z,3.85
2023-02-03T13:36:45.519Z,5.25
2023-02-03T13:40:59.319Z,6.00
2023-02-03T13:45:14.842Z,7.78
2023-02-03T13:49:25.867Z,7.05
2023-02-03T13:53:36.609Z,5.10
2023-02-03T13:57:40.382Z,6.63
2023-02-03T14:01:44.776Z,5.43
2023-02-03T14:05:51.131Z,4.80
2023-02-03T14:10:22.175Z,7.45
2023-02-03T14:14:59.013Z,4.85
2023-02-03T14:19:01.876Z,3.15
2023-02-03T14:23:12.586Z,4.15
2023-02-03T14:27:22.919Z,5.05
2023-02-03T14:31:29.011Z,5.97
2023-02-03T14:35:35.128Z,5.80
2023-02-03T14:39:59.703Z,4.32
2023-02-03T14:44:11.132Z,4.82
2023-02-03T14:48:30.197Z,4.55
2023-02-03T14:52:54.750Z,4.57
2023-02-03T14:57:19.909Z,3.85
2023-02-03T15:01:48.664Z,3.95
2023-02-03T15:05:54.068Z,4.97
2023-02-03T15:09:59.271Z,6.25
2023-02-03T15:14:21.866Z,5.75
2023-02-03T15:18:32.037Z,5.25
2023-02-03T15:26:48.847Z,3.80
2023-02-03T15:30:58.553Z,7.35
2023-02-03T15:35:06.433Z,6.07
2023-02-03T15:39:23.296Z,7.85
2023-02-03T15:43:34.344Z,5.70
2023-02-03T15:47:42.094Z,7.13
2023-02-03T15:51:51.393Z,5.82
2023-02-03T15:56:00.166Z,6.70
2023-02-03T16:00:10.164Z,7.55
2023-02-03T16:08:35.904Z,6.15
2023-02-03T16:12:42.882Z,10.35
2023-02-03T16:17:04.465Z,6.80
2023-02-03T16:21:08.561Z,7.38
2023-02-03T16:25:20.989Z,8.30
2023-02-03T16:29:48.332Z,5.35
2023-02-03T16:34:09.619Z,8.65
2023-02-03T16:38:35.333Z,6.28
2023-02-03T16:42:59.020Z,7.45
2023-02-03T16:47:20.826Z,7.03
2023-02-03T16:51:23.931Z,4.72
2023-02-03T16:55:27.685Z,8.25
2023-02-03T16:59:35.917Z,6.28
2023-02-03T17:03:40.456Z,6.47
2023-02-03T17:07:43.474Z,6.13
2023-02-03T17:11:46.667Z,7.50
2023-02-03T17:15:53.969Z,6.00
2023-02-03T17:19:57.334Z,9.50
2023-02-03T17:24:02.669Z,4.93
2023-02-03T17:28:06.211Z,5.10
2023-02-03T17:32:15.286Z,8.00
2023-02-03T17:36:21.904Z,7.15
2023-02-03T17:53:27.535Z,7.03
2023-02-03T17:57:34.554Z,10.52
2023-02-03T18:01:39.276Z,9.13
2023-02-03T18:05:51.816Z,9.35
2023-02-03T18:10:00.635Z,8.00
2023-02-03T18:14:05.385Z,9.15
2023-02-03T18:18:08.458Z,9.13
2023-02-03T18:22:12.853Z,9.50
2023-02-03T18:26:16.028Z,9.02
2023-02-03T18:30:21.943Z,9.45
2023-02-03T18:34:25.949Z,12.13
2023-02-03T18:38:33.261Z,9.52
2023-02-03T18:42:36.877Z,10.98
2023-02-03T18:46:40.402Z,10.75
2023-02-03T18:50:45.040Z,10.27
2023-02-03T18:54:49.744Z,10.05
2023-02-03T18:58:53.186Z,12.18
2023-02-03T19:03:06.203Z,13.32
2023-02-03T19:07:09.581Z,11.40
2023-02-03T19:11:15.463Z,12.15
2023-02-03T19:15:20.774Z,10.90
2023-02-03T19:19:24.084Z,10.38
2023-02-03T19:23:27.461Z,11.45
2023-02-03T19:27:32.844Z,11.40
2023-02-03T19:31:36.996Z,11.38
2023-02-03T19:35:40.236Z,13.05
2023-02-03T19:39:47.038Z,12.98
2023-02-03T19:43:52.361Z,12.07
2023-02-03T19:47:55.582Z,12.68
2023-02-03T19:51:59.016Z,13.45
2023-02-03T19:56:02.226Z,8.23
2023-02-03T20:00:08.929Z,12.50
2023-02-03T20:04:15.906Z,10.05
2023-02-03T20:08:27.967Z,12.38
2023-02-03T20:12:51.255Z,13.32
2023-02-03T20:16:59.292Z,6.82
2023-02-03T20:21:07.334Z,11.02
2023-02-03T20:25:19.659Z,11.57
2023-02-03T20:29:25.811Z,10.50
2023-02-03T20:33:32.096Z,12.50
2023-02-03T20:37:36.346Z,12.57
2023-02-03T20:41:41.139Z,10.88
2023-02-03T20:45:44.608Z,11.57
2023-02-03T20:49:50.046Z,11.40
2023-02-03T20:53:53.622Z,7.93
2023-02-03T20:57:57.229Z,10.50
2023-02-03T21:02:08.491Z,11.32
2023-02-03T21:06:17.670Z,11.38
2023-02-03T21:10:22.423Z,14.10
2023-02-03T21:14:30.659Z,13.23
2023-02-03T21:18:41.269Z,13.38
2023-02-03T21:22:45.960Z,15.85
2023-02-03T21:26:49.808Z,13.32
2023-02-03T21:30:52.768Z,16.75
2023-02-03T21:34:56.810Z,16.38
2023-02-03T21:39:01.615Z,17.52
2023-02-03T21:43:04.878Z,15.27
2023-02-03T21:47:13.293Z,7.22
2023-02-03T21:51:19.288Z,12.00
2023-02-03T21:55:23.993Z,15.57
2023-02-03T21:59:42.471Z,17.17
2023-02-03T22:03:48.785Z,14.75
2023-02-03T22:07:51.860Z,16.88
2023-02-03T22:11:56.598Z,15.95
2023-02-03T22:16:00.306Z,15.05
2023-02-03T22:20:05.387Z,14.57
2023-02-03T22:24:08.702Z,12.45
2023-02-03T22:28:15.796Z,6.88
2023-02-03T22:32:20.947Z,15.23
2023-02-03T22:36:24.301Z,14.55
2023-02-03T22:40:28.324Z,16.92
2023-02-03T22:44:35.335Z,9.98
2023-02-03T22:48:38.414Z,14.00
2023-02-03T22:52:42.116Z,12.77
2023-02-03T22:56:44.949Z,13.23
2023-02-03T23:00:49.590Z,13.10
2023-02-03T23:04:52.958Z,12.00
2023-02-03T23:08:57.096Z,11.25
2023-02-03T23:13:01.855Z,9.65
2023-02-03T23:17:06.404Z,12.23
2023-02-03T23:21:09.688Z,11.75
2023-02-03T23:25:14.013Z,6.60
2023-02-03T23:29:17.441Z,12.70
2023-02-03T23:33:22.852Z,11.32
2023-02-03T23:37:26.406Z,14.57
2023-02-03T23:41:29.288Z,12.65
2023-02-03T23:45:32.560Z,12.43
2023-02-03T23:49:37.185Z,12.15
2023-02-03T23:53:40.946Z,9.95
2023-02-03T23:57:44.891Z,10.10
